createdAt,value
2023-05-12T00:00:22.495Z,13.50
2023-05-12T00:01:24.933Z,17.50
2023-05-12T00:02:26.516Z,13.75
2023-05-12T00:03:28.988Z,15.75
2023-05-12T00:04:30.609Z,15.50
2023-05-12T00:05:33.078Z,18.50
2023-05-12T00:06:34.527Z,13.50
2023-05-12T00:07:37.072Z,16.00
2023-05-12T00:08:38.473Z,14.75
2023-05-12T00:09:42.411Z,17.00
2023-05-12T00:10:43.819Z,16.50
2023-05-12T00:11:48.348Z,16.25
2023-05-12T00:12:49.786Z,16.50
2023-05-12T00:13:52.226Z,16.75
2023-05-12T00:14:53.652Z,15.25
2023-05-12T00:15:56.749Z,15.50
2023-05-12T00:16:59.680Z,16.00
2023-05-12T00:18:01.225Z,19.00
2023-05-12T00:19:03.718Z,19.75
2023-05-12T00:20:05.752Z,21.25
2023-05-12T00:21:08.652Z,22.25
2023-05-12T00:22:10.178Z,23.75
2023-05-12T00:23:12.929Z,18.75
2023-05-12T00:24:14.411Z,14.50
2023-05-12T00:25:18.289Z,22.25
2023-05-12T00:26:19.676Z,20.00
2023-05-12T00:27:22.123Z,18.50
2023-05-12T00:28:23.526Z,15.50
2023-05-12T00:29:25.896Z,16.25
2023-05-12T00:30:27.335Z,18.00
2023-05-12T00:31:30.551Z,16.75
2023-05-12T00:32:32.088Z,17.25
2023-05-12T00:33:34.477Z,17.50
2023-05-12T00:34:36.006Z,19.50
2023-05-12T00:35:38.371Z,17.75
2023-05-12T00:36:39.784Z,13.25
2023-05-12T00:37:42.650Z,16.00
2023-05-12T00:38:44.058Z,22.00
2023-05-12T00:39:46.485Z,13.00
2023-05-12T00:40:49.456Z,10.75
2023-05-12T00:41:55.073Z,8.75
2023-05-12T00:42:56.520Z,9.00
2023-05-12T00:43:58.896Z,12.00
2023-05-12T00:45:00.295Z,9.50
2023-05-12T00:46:03.167Z,10.50
2023-05-12T00:47:04.785Z,8.50
2023-05-12T00:48:07.740Z,8.50
2023-05-12T00:49:09.237Z,8.50
2023-05-12T00:50:11.748Z,9.00
2023-05-12T00:51:13.235Z,10.00
2023-05-12T00:52:15.697Z,16.25
2023-05-12T00:53:17.123Z,15.75
2023-05-12T00:54:19.481Z,15.50
2023-05-12T00:55:20.936Z,16.75
2023-05-12T00:56:24.672Z,22.00
2023-05-12T00:57:26.132Z,17.50
2023-05-12T00:58:28.553Z,13.25
2023-05-12T00:59:30.032Z,13.00
2023-05-12T01:00:32.402Z,15.00
2023-05-12T01:01:33.977Z,20.75
2023-05-12T01:02:36.671Z,21.00
2023-05-12T01:03:38.284Z,17.75
2023-05-12T01:04:40.683Z,20.00
2023-05-12T01:05:42.841Z,21.25
2023-05-12T01:06:46.550Z,26.00
2023-05-12T01:07:48.094Z,23.25
2023-05-12T01:08:50.556Z,21.00
2023-05-12T01:09:53.909Z,12.50
2023-05-12T01:10:56.282Z,8.00
2023-05-12T01:11:59.024Z,8.75
2023-05-12T01:13:01.388Z,5.50
2023-05-12T01:14:02.911Z,9.25
2023-05-12T01:15:05.717Z,7.00
2023-05-12T01:16:07.497Z,6.00
2023-05-12T01:17:11.358Z,5.50
2023-05-12T01:18:12.844Z,10.50
2023-05-12T01:19:16.707Z,8.00
2023-05-12T01:20:18.420Z,8.50
2023-05-12T01:21:21.128Z,7.75
2023-05-12T01:22:22.543Z,6.00
2023-05-12T01:23:25.660Z,6.00
2023-05-12T01:24:27.438Z,8.00
2023-05-12T01:25:29.957Z,6.00
2023-05-12T01:26:33.373Z,6.25
2023-05-12T01:27:36.114Z,5.25
2023-05-12T01:28:37.548Z,5.50
2023-05-12T01:29:39.998Z,6.50
2023-05-12T01:30:42.772Z,6.00
2023-05-12T01:31:44.400Z,6.00
2023-05-12T01:32:47.004Z,6.00
2023-05-12T01:33:48.496Z,6.00
2023-05-12T01:34:51.619Z,9.25
2023-05-12T01:35:53.087Z,10.75
2023-05-12T01:36:55.469Z,15.00
2023-05-12T01:37:56.878Z,16.25
2023-05-12T01:38:59.275Z,17.00
2023-05-12T01:40:00.924Z,10.00
2023-05-12T01:41:03.342Z,10.75
2023-05-12T01:42:06.465Z,9.25
2023-05-12T01:43:08.901Z,8.00
2023-05-12T01:44:10.326Z,8.00
2023-05-12T01:45:13.079Z,6.00
2023-05-12T01:46:14.556Z,8.50
2023-05-12T01:47:17.039Z,12.00
2023-05-12T01:48:18.459Z,11.75
2023-05-12T01:49:20.921Z,12.50
2023-05-12T01:50:22.483Z,14.00
2023-05-12T01:51:24.968Z,16.50
2023-05-12T01:52:26.459Z,12.50
2023-05-12T01:53:28.854Z,12.25
2023-05-12T01:54:30.747Z,13.25
2023-05-12T01:55:34.596Z,12.50
2023-05-12T01:56:36.556Z,12.00
2023-05-12T01:57:40.360Z,13.50
2023-05-12T01:58:41.919Z,14.75
2023-05-12T01:59:44.396Z,13.00
2023-05-12T02:00:45.966Z,10.50
2023-05-12T02:01:48.430Z,12.00
2023-05-12T02:02:50.180Z,10.00
2023-05-12T02:03:52.761Z,8.75
2023-05-12T02:04:54.282Z,11.00
2023-05-12T02:05:56.854Z,12.75
2023-05-12T02:06:58.279Z,10.25
2023-05-12T02:08:00.703Z,10.25
2023-05-12T02:09:02.143Z,13.00
2023-05-12T02:10:04.768Z,13.00
2023-05-12T02:11:06.353Z,20.25
2023-05-12T02:12:09.056Z,19.75
2023-05-12T02:13:11.824Z,16.75
2023-05-12T02:14:14.201Z,14.75
2023-05-12T02:15:15.612Z,14.75
2023-05-12T02:16:18.204Z,8.25
2023-05-12T02:17:19.634Z,8.00
2023-05-12T02:18:22.105Z,9.00
2023-05-12T02:19:23.537Z,6.25
2023-05-12T02:20:26.116Z,7.00
2023-05-12T02:21:28.150Z,10.00
2023-05-12T02:22:30.556Z,7.25
2023-05-12T02:23:31.982Z,8.50
2023-05-12T02:24:34.393Z,6.50
2023-05-12T02:25:35.826Z,7.25
2023-05-12T02:26:38.524Z,5.50
2023-05-12T02:27:39.974Z,5.25
2023-05-12T02:28:43.735Z,9.00
2023-05-12T02:29:45.449Z,8.50
2023-05-12T02:30:48.626Z,6.00
2023-05-12T02:31:51.236Z,8.00
2023-05-12T02:32:52.711Z,10.00
2023-05-12T02:33:55.127Z,10.50
2023-05-12T02:34:56.553Z,8.00
2023-05-12T02:35:58.952Z,8.00
2023-05-12T02:37:00.755Z,7.25
2023-05-12T02:38:03.684Z,6.50
2023-05-12T02:39:05.271Z,6.75
2023-05-12T02:40:08.408Z,10.00
2023-05-12T02:41:09.860Z,8.00
2023-05-12T02:42:12.395Z,7.50
2023-05-12T02:43:13.823Z,6.00
2023-05-12T02:44:17.893Z,6.00
2023-05-12T02:45:19.303Z,8.25
2023-05-12T02:46:21.801Z,8.25
2023-05-12T02:47:23.469Z,8.50
2023-05-12T02:48:25.879Z,8.00
2023-05-12T02:49:27.348Z,10.00
2023-05-12T02:50:29.756Z,10.75
2023-05-12T02:51:31.885Z,7.75
2023-05-12T02:52:34.407Z,7.00
2023-05-12T02:53:35.975Z,9.00
2023-05-12T02:54:38.391Z,8.75
2023-05-12T02:55:39.804Z,9.00
2023-05-12T02:56:42.233Z,9.50
2023-05-12T02:57:43.722Z,9.25
2023-05-12T02:58:46.733Z,10.75
2023-05-12T02:59:49.620Z,10.00
2023-05-12T03:01:03.076Z,8.00
2023-05-12T03:02:11.249Z,13.00
2023-05-12T03:03:13.828Z,9.00
2023-05-12T03:04:16.584Z,8.50
2023-05-12T03:05:19.050Z,11.00
2023-05-12T03:06:20.451Z,9.00
2023-05-12T03:07:22.871Z,8.75
2023-05-12T03:08:24.424Z,10.00
2023-05-12T03:09:26.822Z,8.75
2023-05-12T03:10:28.254Z,9.00
2023-05-12T03:11:30.881Z,11.25
2023-05-12T03:12:32.417Z,15.50
2023-05-12T03:13:35.115Z,9.25
2023-05-12T03:14:36.563Z,11.00
2023-05-12T03:15:40.853Z,13.50
2023-05-12T03:16:42.429Z,10.50
2023-05-12T03:17:44.903Z,12.00
2023-05-12T03:18:46.751Z,10.75
2023-05-12T03:19:49.157Z,12.00
2023-05-12T03:20:50.601Z,9.75
2023-05-12T03:21:52.997Z,11.50
2023-05-12T03:22:54.473Z,9.00
2023-05-12T03:23:57.432Z,14.25
2023-05-12T03:24:58.854Z,13.00
2023-05-12T03:26:01.451Z,15.00
2023-05-12T03:27:02.967Z,15.00
2023-05-12T03:28:05.817Z,15.50
2023-05-12T03:29:08.006Z,11.00
2023-05-12T03:30:10.961Z,12.75
2023-05-12T03:31:13.782Z,9.25
2023-05-12T03:32:16.693Z,12.00
2023-05-12T03:33:18.157Z,12.00
2023-05-12T03:34:20.613Z,13.75
2023-05-12T03:35:22.076Z,11.25
2023-05-12T03:36:24.722Z,11.00
2023-05-12T03:37:26.217Z,13.00
2023-05-12T03:38:30.877Z,11.50
2023-05-12T03:39:32.441Z,11.50
2023-05-12T03:40:34.852Z,12.00
2023-05-12T03:41:36.308Z,12.75
2023-05-12T03:42:38.788Z,13.50
2023-05-12T03:43:40.463Z,13.75
2023-05-12T03:44:43.845Z,14.25
2023-05-12T03:45:45.324Z,12.75
2023-05-12T03:46:49.154Z,15.00
2023-05-12T03:47:50.737Z,15.50
2023-05-12T03:48:53.271Z,12.25
2023-05-12T03:49:54.824Z,15.25
2023-05-12T03:50:57.255Z,11.00
2023-05-12T03:51:58.689Z,11.75
2023-05-12T03:53:01.759Z,14.50
2023-05-12T03:54:03.325Z,12.00
2023-05-12T03:55:06.641Z,11.50
2023-05-12T03:56:08.286Z,12.00
2023-05-12T03:57:10.798Z,12.50
2023-05-12T03:58:12.221Z,14.25
2023-05-12T03:59:14.630Z,15.00
2023-05-12T04:00:17.800Z,14.00
2023-05-12T04:01:19.284Z,11.25
2023-05-12T04:02:23.463Z,13.00
2023-05-12T04:03:25.039Z,9.50
2023-05-12T04:04:27.539Z,12.00
2023-05-12T04:05:28.981Z,13.00
2023-05-12T04:06:31.726Z,13.25
2023-05-12T04:07:33.167Z,13.00
2023-05-12T04:08:35.613Z,13.00
2023-05-12T04:09:37.028Z,15.50
2023-05-12T04:10:39.840Z,15.00
2023-05-12T04:11:41.308Z,13.50
2023-05-12T04:12:43.711Z,12.25
2023-05-12T04:13:45.571Z,13.75
2023-05-12T04:14:48.188Z,11.25
2023-05-12T04:15:49.878Z,11.50
2023-05-12T04:16:52.414Z,12.75
2023-05-12T04:17:55.308Z,15.00
2023-05-12T04:18:57.922Z,11.75
2023-05-12T04:19:59.562Z,15.00
2023-05-12T04:21:02.546Z,13.50
2023-05-12T04:22:04.112Z,12.75
2023-05-12T04:23:06.560Z,14.50
2023-05-12T04:24:08.259Z,11.25
2023-05-12T04:25:10.883Z,16.75
2023-05-12T04:26:12.293Z,13.00
2023-05-12T04:27:14.718Z,15.00
2023-05-12T04:28:16.187Z,12.00
2023-05-12T04:29:18.588Z,12.50
2023-05-12T04:30:20.199Z,15.00
2023-05-12T04:31:22.838Z,13.50
2023-05-12T04:32:24.333Z,12.00
2023-05-12T04:33:28.151Z,12.25
2023-05-12T04:34:29.578Z,12.25
2023-05-12T04:35:31.968Z,13.25
2023-05-12T04:36:33.820Z,14.25
2023-05-12T04:37:36.217Z,12.50
2023-05-12T04:38:37.680Z,13.00
2023-05-12T04:39:40.111Z,12.25
2023-05-12T04:40:41.579Z,14.25
2023-05-12T04:41:44.050Z,11.50
2023-05-12T04:42:45.502Z,12.75
2023-05-12T04:44:52.349Z,12.25
2023-05-12T04:45:55.428Z,13.00
2023-05-12T04:46:57.988Z,13.00
2023-05-12T04:48:00.428Z,14.75
2023-05-12T04:49:03.241Z,13.50
2023-05-12T04:50:06.055Z,10.50
2023-05-12T04:51:07.535Z,12.25
2023-05-12T04:52:09.953Z,11.00
2023-05-12T04:53:12.318Z,14.25
2023-05-12T04:54:14.769Z,10.50
2023-05-12T04:55:16.213Z,13.00
2023-05-12T04:56:22.096Z,12.50
2023-05-12T04:57:23.555Z,13.75
2023-05-12T04:58:25.965Z,10.00
2023-05-12T04:59:27.628Z,16.00
2023-05-12T05:00:30.334Z,12.00
2023-05-12T05:01:31.888Z,10.50
2023-05-12T05:02:34.406Z,11.75
2023-05-12T05:03:36.098Z,11.25
2023-05-12T05:04:39.962Z,12.00
2023-05-12T05:05:41.390Z,12.00
2023-05-12T05:06:43.792Z,12.00
2023-05-12T05:07:45.257Z,12.75
2023-05-12T05:08:47.703Z,11.50
2023-05-12T05:09:49.161Z,14.00
2023-05-12T05:10:51.533Z,15.00
2023-05-12T05:11:52.954Z,11.25
2023-05-12T05:12:55.335Z,12.00
2023-05-12T05:13:57.770Z,12.00
2023-05-12T05:14:59.194Z,11.50
2023-05-12T05:16:01.893Z,11.00
2023-05-12T05:17:03.540Z,11.00
2023-05-12T05:18:06.417Z,10.75
2023-05-12T05:19:15.929Z,9.75
2023-05-12T05:20:29.072Z,10.75
2023-05-12T05:21:30.785Z,11.00
2023-05-12T05:22:33.185Z,9.50
2023-05-12T05:23:34.697Z,11.00
2023-05-12T05:24:37.086Z,11.50
2023-05-12T05:25:39.388Z,11.00
2023-05-12T05:26:42.036Z,15.00
2023-05-12T05:27:43.961Z,11.00
2023-05-12T05:28:49.517Z,9.00
2023-05-12T05:29:50.971Z,13.75
2023-05-12T05:30:53.677Z,12.00
2023-05-12T05:31:55.183Z,12.25
2023-05-12T05:32:57.770Z,10.75
2023-05-12T05:33:59.556Z,11.50
2023-05-12T05:35:02.000Z,11.50
2023-05-12T05:36:06.540Z,11.50
2023-05-12T05:37:08.003Z,8.50
2023-05-12T05:38:10.418Z,8.75
2023-05-12T05:39:12.693Z,13.25
2023-05-12T05:40:15.114Z,11.75
2023-05-12T05:41:16.561Z,8.00
2023-05-12T05:42:18.992Z,10.00
2023-05-12T05:43:20.435Z,9.00
2023-05-12T05:44:22.987Z,11.50
2023-05-12T05:45:25.130Z,8.00
2023-05-12T05:46:28.438Z,9.00
2023-05-12T05:47:31.458Z,12.50
2023-05-12T05:48:33.996Z,10.75
2023-05-12T05:49:35.430Z,9.25
2023-05-12T05:50:37.946Z,11.25
2023-05-12T05:51:41.729Z,9.50
2023-05-12T05:52:43.284Z,10.75
2023-05-12T05:53:45.678Z,9.00
2023-05-12T05:54:47.164Z,15.50
2023-05-12T05:55:49.638Z,12.75
2023-05-12T05:56:51.124Z,7.50
2023-05-12T05:57:53.550Z,10.00
2023-05-12T05:58:55.008Z,10.50
2023-05-12T05:59:57.426Z,11.75
2023-05-12T06:01:00.288Z,10.50
2023-05-12T06:02:03.646Z,8.00
2023-05-12T06:03:05.348Z,9.25
2023-05-12T06:04:07.870Z,10.75
2023-05-12T06:05:09.643Z,9.25
2023-05-12T06:06:12.068Z,9.50
2023-05-12T06:07:14.865Z,9.50
2023-05-12T06:08:17.303Z,12.25
2023-05-12T06:09:18.769Z,6.75
2023-05-12T06:10:21.410Z,9.00
2023-05-12T06:11:23.078Z,8.75
2023-05-12T06:12:25.576Z,10.00
2023-05-12T06:13:26.983Z,11.25
2023-05-12T06:14:29.418Z,10.75
2023-05-12T06:15:30.873Z,8.25
2023-05-12T06:16:33.307Z,8.25
2023-05-12T06:17:34.890Z,8.00
2023-05-12T06:18:38.627Z,9.00
2023-05-12T06:19:40.165Z,10.25
2023-05-12T06:20:42.574Z,8.50
2023-05-12T06:21:44.043Z,8.50
2023-05-12T06:22:47.825Z,8.75
2023-05-12T06:23:49.269Z,11.00
2023-05-12T06:24:52.392Z,10.00
2023-05-12T06:25:53.836Z,9.25
2023-05-12T06:26:56.778Z,12.25
2023-05-12T06:27:58.214Z,10.00
2023-05-12T06:29:00.801Z,9.50
2023-05-12T06:30:02.273Z,10.75
2023-05-12T06:31:07.448Z,10.00
2023-05-12T06:32:09.030Z,9.00
2023-05-12T06:33:11.642Z,12.00
2023-05-12T06:34:14.065Z,9.25
2023-05-12T06:35:15.686Z,9.00
2023-05-12T06:36:18.145Z,8.50
2023-05-12T06:37:19.576Z,8.25
2023-05-12T06:38:23.307Z,12.25
2023-05-12T06:39:24.743Z,11.00
2023-05-12T06:40:27.273Z,9.00
2023-05-12T06:41:28.745Z,8.00
2023-05-12T06:42:31.185Z,8.00
2023-05-12T06:43:32.697Z,11.00
2023-05-12T06:44:35.071Z,6.00
2023-05-12T06:45:36.616Z,8.00
2023-05-12T06:46:39.367Z,8.00
2023-05-12T06:47:41.927Z,13.00
2023-05-12T06:48:43.485Z,9.00
2023-05-12T06:49:46.229Z,11.25
2023-05-12T06:50:48.656Z,7.00
2023-05-12T06:51:50.185Z,8.00
2023-05-12T06:52:53.440Z,8.00
2023-05-12T06:53:56.468Z,8.75
2023-05-12T06:54:58.885Z,10.25
2023-05-12T06:56:00.349Z,10.00
2023-05-12T06:57:02.765Z,9.00
2023-05-12T06:58:05.158Z,12.25
2023-05-12T06:59:06.935Z,10.75
2023-05-12T07:00:10.684Z,8.50
2023-05-12T07:01:13.151Z,10.75
2023-05-12T07:02:16.891Z,10.00
2023-05-12T07:03:18.389Z,7.50
2023-05-12T07:04:21.738Z,8.50
2023-05-12T07:05:23.526Z,9.00
2023-05-12T07:06:27.563Z,11.00
2023-05-12T07:07:29.489Z,9.50
2023-05-12T07:08:31.989Z,9.00
2023-05-12T07:09:34.787Z,9.00
2023-05-12T07:10:37.962Z,10.00
2023-05-12T07:11:39.409Z,9.00
2023-05-12T07:12:41.931Z,9.25
2023-05-12T07:13:44.384Z,10.00
2023-05-12T07:14:45.866Z,8.00
2023-05-12T07:15:50.850Z,9.00
2023-05-12T07:16:52.306Z,9.00
2023-05-12T07:17:55.804Z,10.00
2023-05-12T07:19:00.674Z,10.00
2023-05-12T07:20:05.272Z,9.75
2023-05-12T07:21:08.867Z,12.00
2023-05-12T07:22:10.331Z,10.25
2023-05-12T07:23:16.921Z,9.00
2023-05-12T07:24:19.772Z,13.00
2023-05-12T07:25:22.932Z,8.25
2023-05-12T07:26:26.765Z,10.75
2023-05-12T07:27:28.238Z,10.00
2023-05-12T07:28:32.284Z,9.75
2023-05-12T07:29:33.720Z,9.25
2023-05-12T07:30:36.136Z,11.50
2023-05-12T07:31:37.582Z,9.00
2023-05-12T07:32:40.155Z,12.00
2023-05-12T07:33:41.921Z,9.00
2023-05-12T07:34:44.361Z,9.50
2023-05-12T07:35:46.828Z,10.00
2023-05-12T07:36:48.258Z,12.50
2023-05-12T07:37:50.687Z,11.75
2023-05-12T07:38:53.130Z,11.00
2023-05-12T07:39:54.574Z,9.50
2023-05-12T07:40:58.361Z,9.50
2023-05-12T07:41:59.902Z,9.25
2023-05-12T07:43:02.643Z,10.25
2023-05-12T07:44:04.085Z,11.50
2023-05-12T07:45:06.814Z,7.75
2023-05-12T07:46:09.378Z,12.25
2023-05-12T07:47:10.869Z,9.25
2023-05-12T07:48:13.742Z,9.75
2023-05-12T07:49:15.217Z,10.00
2023-05-12T07:50:17.708Z,8.50
2023-05-12T07:51:20.120Z,10.00
2023-05-12T07:52:22.542Z,12.00
2023-05-12T07:53:23.978Z,8.25
2023-05-12T07:54:26.418Z,10.00
2023-05-12T07:55:27.915Z,9.50
2023-05-12T07:56:31.698Z,9.25
2023-05-12T07:57:34.153Z,9.75
2023-05-12T07:58:36.743Z,9.00
2023-05-12T07:59:38.162Z,7.75
2023-05-12T08:00:40.620Z,9.50
2023-05-12T08:01:42.119Z,9.25
2023-05-12T08:02:44.631Z,10.00
2023-05-12T08:03:46.249Z,10.00
2023-05-12T08:04:48.822Z,10.00
2023-05-12T08:05:50.268Z,10.25
2023-05-12T08:06:52.694Z,9.00
2023-05-12T08:07:54.183Z,9.00
2023-05-12T08:08:57.997Z,10.00
2023-05-12T08:09:59.489Z,9.50
2023-05-12T08:11:01.946Z,8.25
2023-05-12T08:12:05.293Z,8.50
2023-05-12T08:13:07.688Z,7.00
2023-05-12T08:14:09.126Z,9.00
2023-05-12T08:15:11.585Z,10.00
2023-05-12T08:16:13.009Z,9.00
2023-05-12T08:17:15.448Z,13.00
2023-05-12T08:18:16.929Z,9.00
2023-05-12T08:19:19.382Z,9.00
2023-05-12T08:20:21.443Z,9.75
2023-05-12T08:21:23.967Z,10.00
2023-05-12T08:22:26.457Z,10.00
2023-05-12T08:23:27.879Z,10.50
2023-05-12T08:24:30.349Z,9.00
2023-05-12T08:25:31.888Z,11.00
2023-05-12T08:26:34.321Z,10.50
2023-05-12T08:27:37.226Z,9.25
2023-05-12T08:28:39.694Z,8.50
2023-05-12T08:29:41.152Z,10.50
2023-05-12T08:30:45.095Z,10.00
2023-05-12T08:31:46.658Z,12.00
2023-05-12T08:32:49.123Z,9.25
2023-05-12T08:34:02.676Z,9.75
2023-05-12T08:35:11.861Z,10.50
2023-05-12T08:36:14.249Z,9.00
2023-05-12T08:37:15.719Z,10.00
2023-05-12T08:38:18.278Z,9.50
2023-05-12T08:39:19.733Z,10.75
2023-05-12T08:40:22.982Z,10.00
2023-05-12T08:41:26.015Z,10.50
2023-05-12T08:42:31.446Z,9.75
2023-05-12T08:43:36.551Z,9.75
2023-05-12T08:44:40.747Z,9.50
2023-05-12T08:45:42.228Z,10.00
2023-05-12T08:46:45.721Z,9.00
2023-05-12T08:47:47.315Z,11.25
2023-05-12T08:48:51.228Z,10.00
2023-05-12T08:49:57.502Z,10.25
2023-05-12T08:51:02.620Z,8.75
2023-05-12T08:52:05.898Z,10.00
2023-05-12T08:53:07.572Z,8.75
2023-05-12T08:54:11.997Z,10.00
2023-05-12T08:55:13.558Z,12.00
2023-05-12T08:57:21.610Z,9.75
2023-05-12T08:58:33.964Z,11.50
2023-05-12T08:59:44.576Z,9.00
2023-05-12T09:00:46.900Z,11.00
2023-05-12T09:01:49.403Z,10.25
2023-05-12T09:02:54.386Z,10.00
2023-05-12T09:03:57.064Z,11.25
2023-05-12T09:04:59.540Z,11.00
2023-05-12T09:06:01.026Z,11.00
2023-05-12T09:07:06.407Z,11.00
2023-05-12T09:08:09.319Z,10.00
2023-05-12T09:09:13.593Z,10.50
2023-05-12T09:10:29.986Z,11.00
2023-05-12T09:11:35.823Z,9.50
2023-05-12T09:12:37.342Z,9.75
2023-05-12T09:13:40.883Z,11.50
2023-05-12T09:14:43.696Z,12.50
2023-05-12T09:15:46.602Z,10.75
2023-05-12T09:16:49.412Z,11.25
2023-05-12T09:17:52.056Z,11.25
2023-05-12T09:18:54.778Z,10.50
2023-05-12T09:19:57.257Z,13.25
2023-05-12T09:21:00.597Z,12.00
2023-05-12T09:22:03.114Z,11.00
2023-05-12T09:23:17.368Z,11.25
2023-05-12T09:24:19.937Z,10.50
2023-05-12T09:25:21.820Z,11.25
2023-05-12T09:26:24.569Z,10.00
2023-05-12T09:27:26.856Z,12.00
2023-05-12T09:28:35.568Z,10.25
2023-05-12T09:29:55.587Z,11.25
2023-05-12T09:31:03.651Z,11.00
2023-05-12T09:32:06.313Z,12.00
2023-05-12T09:33:08.272Z,8.25
2023-05-12T09:34:10.843Z,12.00
2023-05-12T09:35:12.693Z,12.00
2023-05-12T09:36:17.770Z,9.00
2023-05-12T09:37:19.230Z,11.00
2023-05-12T09:38:21.640Z,12.00
2023-05-12T09:39:23.104Z,12.00
2023-05-12T09:40:25.553Z,8.75
2023-05-12T09:41:26.980Z,9.50
2023-05-12T09:42:30.223Z,11.75
2023-05-12T09:43:32.077Z,11.50
2023-05-12T09:44:34.535Z,12.75
2023-05-12T09:45:36.203Z,8.75
2023-05-12T09:46:41.241Z,11.00
2023-05-12T09:47:44.577Z,10.75
2023-05-12T09:48:47.176Z,11.50
2023-05-12T09:49:51.364Z,12.50
2023-05-12T09:50:53.780Z,11.00
2023-05-12T09:51:55.893Z,9.25
2023-05-12T09:53:01.256Z,10.75
2023-05-12T09:54:02.851Z,13.00
2023-05-12T09:55:06.857Z,11.75
2023-05-12T09:56:09.292Z,10.75
2023-05-12T09:57:10.733Z,12.00
2023-05-12T09:58:13.226Z,11.00
2023-05-12T09:59:14.716Z,12.00
2023-05-12T10:00:34.368Z,12.50
2023-05-12T10:01:43.184Z,12.00
2023-05-12T10:02:44.696Z,9.00
2023-05-12T10:03:47.625Z,12.00
2023-05-12T10:04:49.569Z,11.00
2023-05-12T10:05:54.314Z,10.50
2023-05-12T10:06:56.253Z,9.75
2023-05-12T10:07:58.707Z,9.25
2023-05-12T10:09:03.591Z,12.00
2023-05-12T10:10:07.372Z,12.00
2023-05-12T10:11:09.797Z,9.75
2023-05-12T10:12:11.295Z,11.75
2023-05-12T10:13:14.218Z,10.00
2023-05-12T10:14:16.704Z,14.00
2023-05-12T10:15:18.428Z,11.75
2023-05-12T10:16:21.655Z,10.00
2023-05-12T10:17:24.580Z,13.75
2023-05-12T10:18:27.128Z,10.75
2023-05-12T10:19:29.735Z,12.25
2023-05-12T10:20:31.158Z,10.50
2023-05-12T10:21:33.634Z,10.00
2023-05-12T10:22:35.072Z,11.00
2023-05-12T10:23:38.149Z,11.00
2023-05-12T10:24:39.767Z,10.00
2023-05-12T10:25:42.393Z,9.25
2023-05-12T10:26:44.582Z,10.25
2023-05-12T10:27:47.227Z,13.00
2023-05-12T10:28:49.931Z,10.00
2023-05-12T10:29:52.920Z,11.25
2023-05-12T10:30:56.121Z,12.00
2023-05-12T10:31:57.826Z,10.00
2023-05-12T10:33:02.794Z,11.50
2023-05-12T10:34:04.405Z,9.75
2023-05-12T10:35:09.805Z,13.00
2023-05-12T10:36:19.187Z,13.00
2023-05-12T10:37:23.158Z,12.75
2023-05-12T10:38:25.656Z,12.25
2023-05-12T10:39:30.902Z,11.75
2023-05-12T10:40:32.547Z,10.75
2023-05-12T10:41:35.699Z,15.25
2023-05-12T10:42:37.631Z,9.00
2023-05-12T10:43:40.362Z,9.25
2023-05-12T10:44:48.901Z,9.00
2023-05-12T10:46:06.220Z,10.75
2023-05-12T10:47:13.601Z,12.00
2023-05-12T10:48:16.455Z,10.00
2023-05-12T10:49:20.083Z,10.00
2023-05-12T10:50:27.341Z,14.25
2023-05-12T10:51:30.304Z,11.25
2023-05-12T10:52:31.758Z,10.50
2023-05-12T10:53:47.797Z,11.00
2023-05-12T10:54:52.450Z,10.75
2023-05-12T10:55:54.037Z,10.00
2023-05-12T10:56:59.070Z,12.50
2023-05-12T10:58:04.653Z,11.00
2023-05-12T10:59:08.271Z,10.75
2023-05-12T11:00:13.903Z,11.00
2023-05-12T11:01:23.987Z,9.00
2023-05-12T11:02:29.419Z,14.00
2023-05-12T11:03:34.862Z,10.00
2023-05-12T11:04:40.739Z,10.50
2023-05-12T11:05:42.673Z,9.00
2023-05-12T11:06:46.768Z,10.75
2023-05-12T11:07:50.197Z,10.75
2023-05-12T11:08:53.301Z,13.75
2023-05-12T11:09:59.017Z,10.50
2023-05-12T11:11:03.410Z,9.00
2023-05-12T11:12:06.813Z,10.00
2023-05-12T11:13:09.306Z,11.25
2023-05-12T11:14:10.732Z,10.00
2023-05-12T11:15:13.238Z,11.00
2023-05-12T11:16:14.746Z,11.00
2023-05-12T11:17:17.253Z,9.75
2023-05-12T11:18:22.655Z,10.25
2023-05-12T11:19:25.587Z,10.00
2023-05-12T11:20:30.177Z,10.50
2023-05-12T11:21:32.626Z,9.50
2023-05-12T11:22:35.073Z,10.50
2023-05-12T11:23:36.584Z,11.00
2023-05-12T11:24:40.250Z,11.00
2023-05-12T11:25:45.178Z,11.00
2023-05-12T11:26:46.659Z,11.25
2023-05-12T11:27:51.577Z,11.00
2023-05-12T11:28:53.063Z,10.00
2023-05-12T11:29:58.726Z,10.00
2023-05-12T11:31:00.832Z,11.25
2023-05-12T11:32:03.257Z,10.00
2023-05-12T11:33:05.845Z,11.50
2023-05-12T11:34:12.602Z,10.00
2023-05-12T11:35:18.077Z,13.75
2023-05-12T11:36:21.746Z,11.75
2023-05-12T11:37:24.710Z,10.50
2023-05-12T11:38:28.219Z,9.00
2023-05-12T11:39:32.259Z,11.75
2023-05-12T11:40:33.700Z,9.50
2023-05-12T11:41:36.741Z,10.25
2023-05-12T11:42:39.214Z,10.00
2023-05-12T11:43:41.662Z,10.00
2023-05-12T11:44:46.358Z,9.00
2023-05-12T11:45:48.861Z,10.00
2023-05-12T11:46:56.931Z,9.75
2023-05-12T11:48:09.067Z,10.50
2023-05-12T11:49:10.955Z,13.00
2023-05-12T11:50:13.548Z,11.50
2023-05-12T11:51:16.392Z,11.25
2023-05-12T11:52:19.418Z,12.75
2023-05-12T11:53:20.989Z,10.00
2023-05-12T11:54:23.523Z,11.00
2023-05-12T11:55:25.979Z,9.75
2023-05-12T11:56:30.133Z,9.50
2023-05-12T11:57:32.795Z,10.00
2023-05-12T11:58:35.631Z,10.00
2023-05-12T11:59:38.335Z,12.50
2023-05-12T12:00:40.758Z,9.75
2023-05-12T12:01:44.037Z,10.00
2023-05-12T12:02:46.610Z,12.50
2023-05-12T12:03:48.725Z,9.75
2023-05-12T12:04:51.317Z,11.00
2023-05-12T12:05:59.637Z,11.50
2023-05-12T12:07:03.393Z,9.00
2023-05-12T12:08:08.888Z,10.25
2023-05-12T12:09:12.352Z,10.75
2023-05-12T12:10:14.293Z,10.00
2023-05-12T12:11:18.183Z,10.50
2023-05-12T12:12:21.380Z,11.00
2023-05-12T12:13:23.980Z,10.50
2023-05-12T12:14:25.441Z,8.75
2023-05-12T12:15:27.996Z,10.25
2023-05-12T12:16:33.213Z,11.00
2023-05-12T12:17:34.860Z,9.75
2023-05-12T12:18:37.392Z,9.25
2023-05-12T12:19:39.898Z,10.75
2023-05-12T12:20:42.006Z,10.00
2023-05-12T12:21:44.614Z,10.00
2023-05-12T12:22:47.414Z,10.00
2023-05-12T12:23:51.722Z,9.25
2023-05-12T12:24:54.206Z,9.25
2023-05-12T12:25:56.585Z,10.25
2023-05-12T12:26:58.008Z,9.50
2023-05-12T12:28:00.755Z,9.75
2023-05-12T12:29:02.161Z,9.75
2023-05-12T12:30:04.938Z,12.25
2023-05-12T12:31:07.455Z,11.00
2023-05-12T12:32:09.017Z,11.50
2023-05-12T12:33:11.533Z,10.00
2023-05-12T12:34:13.054Z,10.00
2023-05-12T12:35:15.565Z,10.00
2023-05-12T12:36:17.448Z,10.00
2023-05-12T12:37:20.011Z,9.75
2023-05-12T12:38:23.921Z,10.00
2023-05-12T12:39:25.333Z,10.75
2023-05-12T12:40:27.793Z,10.25
2023-05-12T12:41:30.256Z,10.00
2023-05-12T12:42:31.721Z,11.00
2023-05-12T12:43:34.287Z,10.00
2023-05-12T12:44:35.704Z,10.00
2023-05-12T12:45:38.199Z,10.50
2023-05-12T12:46:39.772Z,10.50
2023-05-12T12:47:42.301Z,10.00
2023-05-12T12:48:43.861Z,11.00
2023-05-12T12:49:46.503Z,11.00
2023-05-12T12:50:57.534Z,11.50
2023-05-12T12:52:02.092Z,11.50
2023-05-12T12:53:03.571Z,10.75
2023-05-12T12:54:07.379Z,11.00
2023-05-12T12:55:09.817Z,8.75
2023-05-12T12:56:12.461Z,11.00
2023-05-12T12:57:14.137Z,8.25
2023-05-12T12:58:16.602Z,9.00
2023-05-12T12:59:18.081Z,9.25
2023-05-12T13:00:21.345Z,11.25
2023-05-12T13:01:22.983Z,9.75
2023-05-12T13:02:25.603Z,12.25
2023-05-12T13:03:28.119Z,10.75
2023-05-12T13:04:29.782Z,12.50
2023-05-12T13:05:32.197Z,10.25
2023-05-12T13:06:33.648Z,12.25
2023-05-12T13:07:36.072Z,10.50
2023-05-12T13:08:37.574Z,12.00
2023-05-12T13:09:41.471Z,9.50
2023-05-12T13:10:43.475Z,13.00
2023-05-12T13:11:46.592Z,11.00
2023-05-12T13:12:49.027Z,12.00
2023-05-12T13:13:50.626Z,11.75
2023-05-12T13:14:53.037Z,11.00
2023-05-12T13:15:55.643Z,11.00
2023-05-12T13:16:57.390Z,11.00
2023-05-12T13:17:59.855Z,11.00
2023-05-12T13:19:01.321Z,14.00
2023-05-12T13:20:03.969Z,13.00
2023-05-12T13:21:05.748Z,12.25
2023-05-12T13:22:08.185Z,10.75
2023-05-12T13:23:11.397Z,11.00
2023-05-12T13:24:12.827Z,10.25
2023-05-12T13:25:16.588Z,11.00
2023-05-12T13:26:18.019Z,11.25
2023-05-12T13:27:20.413Z,12.00
2023-05-12T13:28:21.976Z,12.00
2023-05-12T13:29:24.460Z,9.50
2023-05-12T13:30:26.957Z,10.75
2023-05-12T13:31:29.482Z,10.00
2023-05-12T13:32:32.245Z,11.00
2023-05-12T13:33:43.574Z,11.75
2023-05-12T13:34:46.365Z,12.50
2023-05-12T13:35:47.991Z,9.50
2023-05-12T13:36:50.746Z,12.00
2023-05-12T13:37:53.683Z,12.00
2023-05-12T13:38:55.280Z,10.50